sensor_id;sensor_type;location;lat;lon;timestamp;pressure;altitude;pressure_sealevel;temperature;humidity
58967;BME280;44744;51.894;5.080;2022-09-09T00:00:18;100829.90;;;16.58;69.46
58967;BME280;44744;51.894;5.080;2022-09-09T00:02:27;100829.05;;;16.55;69.37
58967;BME280;44744;51.894;5.080;2022-09-09T00:03:43;100825.81;;;16.53;69.34
58967;BME280;44744;51.894;5.080;2022-09-09T00:05:16;100825.98;;;16.51;69.48
58967;BME280;44744;51.894;5.080;2022-09-09T00:06:32;100821.88;;;16.49;69.50
58967;BME280;44744;51.894;5.080;2022-09-09T00:07:51;100823.38;;;16.46;69.50
58967;BME280;44744;51.894;5.080;2022-09-09T00:09:13;100821.84;;;16.43;69.51
58967;BME280;44744;51.894;5.080;2022-09-09T00:10:36;100825.55;;;16.41;69.56
58967;BME280;44744;51.894;5.080;2022-09-09T00:11:43;100824.25;;;16.40;69.53
58967;BME280;44744;51.894;5.080;2022-09-09T00:13:10;100823.64;;;16.38;69.56
58967;BME280;44744;51.894;5.080;2022-09-09T00:14:24;100825.16;;;16.37;69.51
58967;BME280;44744;51.894;5.080;2022-09-09T00:15:31;100824.02;;;16.35;69.60
58967;BME280;44744;51.894;5.080;2022-09-09T00:16:36;100822.25;;;16.31;69.54
58967;BME280;44744;51.894;5.080;2022-09-09T00:17:53;100823.97;;;16.30;69.61
58967;BME280;44744;51.894;5.080;2022-09-09T00:19:02;100825.63;;;16.29;69.55
58967;BME280;44744;51.894;5.080;2022-09-09T00:21:36;100818.91;;;16.24;69.70
58967;BME280;44744;51.894;5.080;2022-09-09T00:22:41;100813.52;;;16.22;69.59
58967;BME280;44744;51.894;5.080;2022-09-09T00:23:53;100810.65;;;16.19;69.69
58967;BME280;44744;51.894;5.080;2022-09-09T00:24:56;100817.05;;;16.17;69.71
58967;BME280;44744;51.894;5.080;2022-09-09T00:27:29;100816.17;;;16.13;69.73
58967;BME280;44744;51.894;5.080;2022-09-09T00:28:38;100814.17;;;16.11;69.82
58967;BME280;44744;51.894;5.080;2022-09-09T00:29:43;100816.28;;;16.09;69.93
58967;BME280;44744;51.894;5.080;2022-09-09T00:30:51;100815.48;;;16.08;69.81
58967;BME280;44744;51.894;5.080;2022-09-09T00:31:54;100815.41;;;16.09;69.91
58967;BME280;44744;51.894;5.080;2022-09-09T00:33:00;100816.48;;;16.09;69.93
58967;BME280;44744;51.894;5.080;2022-09-09T00:35:31;100817.96;;;16.09;69.89
58967;BME280;44744;51.894;5.080;2022-09-09T00:36:33;100814.54;;;16.02;69.99
58967;BME280;44744;51.894;5.080;2022-09-09T00:37:35;100817.63;;;16.01;69.93
58967;BME280;44744;51.894;5.080;2022-09-09T00:38:38;100815.87;;;16.01;70.13
58967;BME280;44744;51.894;5.080;2022-09-09T00:39:44;100815.33;;;16.01;70.05
58967;BME280;44744;51.894;5.080;2022-09-09T00:40:55;100814.96;;;16.01;70.09
58967;BME280;44744;51.894;5.080;2022-09-09T00:44:33;100824.39;;;16.03;70.20
58967;BME280;44744;51.894;5.080;2022-09-09T00:45:52;100824.83;;;16.05;70.10
58967;BME280;44744;51.894;5.080;2022-09-09T00:48:15;100817.18;;;16.05;70.01
58967;BME280;44744;51.894;5.080;2022-09-09T00:50:57;100813.31;;;16.04;69.93
58967;BME280;44744;51.894;5.080;2022-09-09T00:54:40;100813.73;;;16.00;70.07
58967;BME280;44744;51.894;5.080;2022-09-09T00:57:31;100810.59;;;16.00;70.05
58967;BME280;44744;51.894;5.080;2022-09-09T00:58:31;100809.73;;;15.99;70.03
58967;BME280;44744;51.894;5.080;2022-09-09T00:59:46;100810.64;;;15.99;70.07
58967;BME280;44744;51.894;5.080;2022-09-09T01:00:53;100807.46;;;15.99;70.03
58967;BME280;44744;51.894;5.080;2022-09-09T01:01:58;100804.75;;;15.99;70.09
58967;BME280;44744;51.894;5.080;2022-09-09T01:04:16;100802.42;;;15.99;70.10
58967;BME280;44744;51.894;5.080;2022-09-09T01:06:31;100805.80;;;15.99;70.05
58967;BME280;44744;51.894;5.080;2022-09-09T01:07:32;100807.23;;;15.99;70.14
58967;BME280;44744;51.894;5.080;2022-09-09T01:09:55;100804.00;;;16.00;70.08
58967;BME280;44744;51.894;5.080;2022-09-09T01:10:56;100803.69;;;15.99;70.06
58967;BME280;44744;51.894;5.080;2022-09-09T01:13:20;100798.88;;;15.99;70.01
58967;BME280;44744;51.894;5.080;2022-09-09T01:15:37;100798.16;;;15.95;69.94
58967;BME280;44744;51.894;5.080;2022-09-09T01:16:38;100798.16;;;15.92;70.06
58967;BME280;44744;51.894;5.080;2022-09-09T01:19:02;100800.27;;;15.91;70.07
58967;BME280;44744;51.894;5.080;2022-09-09T01:20:15;100797.67;;;15.89;70.15
58967;BME280;44744;51.894;5.080;2022-09-09T01:24:36;100794.30;;;15.84;70.12
58967;BME280;44744;51.894;5.080;2022-09-09T01:27:14;100792.54;;;15.80;70.19
58967;BME280;44744;51.894;5.080;2022-09-09T01:28:21;100792.39;;;15.79;70.19
58967;BME280;44744;51.894;5.080;2022-09-09T01:29:29;100796.28;;;15.80;70.22
58967;BME280;44744;51.894;5.080;2022-09-09T01:30:38;100798.02;;;15.80;70.24
58967;BME280;44744;51.894;5.080;2022-09-09T01:31:51;100795.73;;;15.80;70.15
58967;BME280;44744;51.894;5.080;2022-09-09T01:32:56;100792.98;;;15.78;70.18
58967;BME280;44744;51.894;5.080;2022-09-09T01:33:58;100793.10;;;15.77;70.30
58967;BME280;44744;51.894;5.080;2022-09-09T01:34:58;100795.25;;;15.77;70.29
58967;BME280;44744;51.894;5.080;2022-09-09T01:36:18;100790.80;;;15.77;70.30
58967;BME280;44744;51.894;5.080;2022-09-09T01:37:20;100788.09;;;15.77;70.34
58967;BME280;44744;51.894;5.080;2022-09-09T01:38:21;100792.89;;;15.77;70.22
58967;BME280;44744;51.894;5.080;2022-09-09T01:39:22;100790.35;;;15.78;70.35
58967;BME280;44744;51.894;5.080;2022-09-09T01:40:23;100788.39;;;15.78;70.31
58967;BME280;44744;51.894;5.080;2022-09-09T01:41:23;100790.65;;;15.78;70.34
58967;BME280;44744;51.894;5.080;2022-09-09T01:42:24;100784.08;;;15.78;70.38
58967;BME280;44744;51.894;5.080;2022-09-09T01:43:25;100782.14;;;15.78;70.34
58967;BME280;44744;51.894;5.080;2022-09-09T01:44:26;100783.02;;;15.78;70.39
58967;BME280;44744;51.894;5.080;2022-09-09T01:45:27;100788.98;;;15.77;70.30
58967;BME280;44744;51.894;5.080;2022-09-09T01:46:27;100787.80;;;15.76;70.33
58967;BME280;44744;51.894;5.080;2022-09-09T01:47:28;100787.13;;;15.76;70.26
58967;BME280;44744;51.894;5.080;2022-09-09T01:48:30;100786.81;;;15.75;70.36
58967;BME280;44744;51.894;5.080;2022-09-09T01:49:31;100787.36;;;15.75;70.38
58967;BME280;44744;51.894;5.080;2022-09-09T01:50:32;100785.97;;;15.74;70.36
58967;BME280;44744;51.894;5.080;2022-09-09T01:51:32;100785.02;;;15.75;70.48
58967;BME280;44744;51.894;5.080;2022-09-09T01:52:35;100783.65;;;15.75;70.46
58967;BME280;44744;51.894;5.080;2022-09-09T01:53:37;100780.43;;;15.75;70.51
58967;BME280;44744;51.894;5.080;2022-09-09T01:54:39;100779.17;;;15.75;70.52
58967;BME280;44744;51.894;5.080;2022-09-09T01:55:40;100776.84;;;15.75;70.50
58967;BME280;44744;51.894;5.080;2022-09-09T01:56:54;100776.39;;;15.76;70.55
58967;BME280;44744;51.894;5.080;2022-09-09T01:59:11;100773.48;;;15.75;70.60
58967;BME280;44744;51.894;5.080;2022-09-09T02:00:15;100774.45;;;15.74;70.53
58967;BME280;44744;51.894;5.080;2022-09-09T02:01:43;100772.81;;;15.72;70.56
58967;BME280;44744;51.894;5.080;2022-09-09T02:02:59;100766.02;;;15.69;70.55
58967;BME280;44744;51.894;5.080;2022-09-09T02:04:03;100764.89;;;15.68;70.61
58967;BME280;44744;51.894;5.080;2022-09-09T02:07:41;100759.84;;;15.64;70.66
58967;BME280;44744;51.894;5.080;2022-09-09T02:08:47;100756.50;;;15.63;70.68
58967;BME280;44744;51.894;5.080;2022-09-09T02:09:57;100757.40;;;15.63;70.71
58967;BME280;44744;51.894;5.080;2022-09-09T02:11:03;100758.91;;;15.65;70.74
58967;BME280;44744;51.894;5.080;2022-09-09T02:12:10;100756.05;;;15.65;70.79
58967;BME280;44744;51.894;5.080;2022-09-09T02:13:18;100758.48;;;15.66;70.79
58967;BME280;44744;51.894;5.080;2022-09-09T02:14:25;100755.00;;;15.64;70.71
58967;BME280;44744;51.894;5.080;2022-09-09T02:15:52;100753.36;;;15.65;70.71
58967;BME280;44744;51.894;5.080;2022-09-09T02:17:18;100752.61;;;15.63;70.74
58967;BME280;44744;51.894;5.080;2022-09-09T02:19:48;100751.42;;;15.60;70.82
58967;BME280;44744;51.894;5.080;2022-09-09T02:20:51;100750.64;;;15.61;70.83
58967;BME280;44744;51.894;5.080;2022-09-09T02:21:55;100750.27;;;15.61;70.79
58967;BME280;44744;51.894;5.080;2022-09-09T02:22:56;100753.55;;;15.62;70.87
58967;BME280;44744;51.894;5.080;2022-09-09T02:23:59;100752.70;;;15.62;70.79
58967;BME280;44744;51.894;5.080;2022-09-09T02:25:02;100754.34;;;15.62;70.83
58967;BME280;44744;51.894;5.080;2022-09-09T02:26:04;100754.67;;;15.62;70.89
58967;BME280;44744;51.894;5.080;2022-09-09T02:27:06;100753.78;;;15.62;70.86
58967;BME280;44744;51.894;5.080;2022-09-09T02:28:09;100753.48;;;15.61;70.88
58967;BME280;44744;51.894;5.080;2022-09-09T02:29:17;100756.13;;;15.61;70.88
58967;BME280;44744;51.894;5.080;2022-09-09T02:30:20;100752.92;;;15.62;70.86
58967;BME280;44744;51.894;5.080;2022-09-09T02:31:23;100755.47;;;15.63;70.83
58967;BME280;44744;51.894;5.080;2022-09-09T02:32:24;100755.92;;;15.62;70.84
58967;BME280;44744;51.894;5.080;2022-09-09T02:33:29;100755.38;;;15.62;70.84
58967;BME280;44744;51.894;5.080;2022-09-09T02:34:32;100755.28;;;15.63;70.75
58967;BME280;44744;51.894;5.080;2022-09-09T02:35:37;100752.31;;;15.62;70.72
58967;BME280;44744;51.894;5.080;2022-09-09T02:36:40;100750.10;;;15.61;70.80
58967;BME280;44744;51.894;5.080;2022-09-09T02:37:45;100751.82;;;15.62;70.72
58967;BME280;44744;51.894;5.080;2022-09-09T02:38:47;100751.09;;;15.60;70.72
58967;BME280;44744;51.894;5.080;2022-09-09T02:39:48;100750.10;;;15.59;70.76
58967;BME280;44744;51.894;5.080;2022-09-09T02:40:48;100749.54;;;15.59;70.78
58967;BME280;44744;51.894;5.080;2022-09-09T02:41:48;100748.88;;;15.58;70.71
58967;BME280;44744;51.894;5.080;2022-09-09T02:42:49;100751.98;;;15.58;70.75
58967;BME280;44744;51.894;5.080;2022-09-09T02:43:49;100751.23;;;15.56;70.75
58967;BME280;44744;51.894;5.080;2022-09-09T02:44:49;100749.34;;;15.55;70.75
58967;BME280;44744;51.894;5.080;2022-09-09T02:46:08;100749.81;;;15.53;70.77
58967;BME280;44744;51.894;5.080;2022-09-09T02:47:41;100747.10;;;15.51;70.89
58967;BME280;44744;51.894;5.080;2022-09-09T02:49:04;100747.21;;;15.50;70.88
58967;BME280;44744;51.894;5.080;2022-09-09T02:51:39;100747.27;;;15.47;70.91
58967;BME280;44744;51.894;5.080;2022-09-09T02:55:06;100748.95;;;15.46;70.93
58967;BME280;44744;51.894;5.080;2022-09-09T02:56:14;100749.52;;;15.45;70.89
58967;BME280;44744;51.894;5.080;2022-09-09T02:57:21;100747.97;;;15.40;70.97
58967;BME280;44744;51.894;5.080;2022-09-09T02:58:22;100752.34;;;15.39;70.95
58967;BME280;44744;51.894;5.080;2022-09-09T02:59:24;100754.60;;;15.40;71.02
58967;BME280;44744;51.894;5.080;2022-09-09T03:00:26;100751.13;;;15.39;71.11
58967;BME280;44744;51.894;5.080;2022-09-09T03:01:27;100750.80;;;15.41;71.07
58967;BME280;44744;51.894;5.080;2022-09-09T03:02:27;100755.42;;;15.41;71.12
58967;BME280;44744;51.894;5.080;2022-09-09T03:03:28;100753.95;;;15.41;71.06
58967;BME280;44744;51.894;5.080;2022-09-09T03:04:29;100750.55;;;15.41;71.10
58967;BME280;44744;51.894;5.080;2022-09-09T03:05:29;100753.01;;;15.42;71.12
58967;BME280;44744;51.894;5.080;2022-09-09T03:06:29;100754.56;;;15.43;71.19
58967;BME280;44744;51.894;5.080;2022-09-09T03:07:29;100749.91;;;15.43;71.19
58967;BME280;44744;51.894;5.080;2022-09-09T03:08:30;100751.45;;;15.43;71.21
58967;BME280;44744;51.894;5.080;2022-09-09T03:09:30;100748.52;;;15.45;71.12
58967;BME280;44744;51.894;5.080;2022-09-09T03:10:41;100747.20;;;15.45;71.17
58967;BME280;44744;51.894;5.080;2022-09-09T03:11:42;100748.75;;;15.46;71.16
58967;BME280;44744;51.894;5.080;2022-09-09T03:12:44;100746.69;;;15.45;71.06
58967;BME280;44744;51.894;5.080;2022-09-09T03:14:04;100745.52;;;15.44;71.04
58967;BME280;44744;51.894;5.080;2022-09-09T03:15:25;100743.77;;;15.42;71.09
58967;BME280;44744;51.894;5.080;2022-09-09T03:16:28;100740.15;;;15.40;71.10
58967;BME280;44744;51.894;5.080;2022-09-09T03:17:29;100740.20;;;15.39;71.13
58967;BME280;44744;51.894;5.080;2022-09-09T03:18:30;100739.35;;;15.39;71.13
58967;BME280;44744;51.894;5.080;2022-09-09T03:19:31;100739.64;;;15.37;71.12
58967;BME280;44744;51.894;5.080;2022-09-09T03:20:31;100735.80;;;15.36;71.12
58967;BME280;44744;51.894;5.080;2022-09-09T03:21:31;100736.66;;;15.36;71.17
58967;BME280;44744;51.894;5.080;2022-09-09T03:22:32;100738.11;;;15.36;71.14
58967;BME280;44744;51.894;5.080;2022-09-09T03:23:32;100739.39;;;15.36;71.14
58967;BME280;44744;51.894;5.080;2022-09-09T03:24:32;100743.88;;;15.35;71.15
58967;BME280;44744;51.894;5.080;2022-09-09T03:25:33;100748.87;;;15.35;71.21
58967;BME280;44744;51.894;5.080;2022-09-09T03:26:33;100750.98;;;15.35;71.24
58967;BME280;44744;51.894;5.080;2022-09-09T03:27:33;100751.48;;;15.36;71.20
58967;BME280;44744;51.894;5.080;2022-09-09T03:28:33;100752.73;;;15.36;71.23
58967;BME280;44744;51.894;5.080;2022-09-09T03:29:34;100752.97;;;15.35;71.14
58967;BME280;44744;51.894;5.080;2022-09-09T03:30:34;100756.41;;;15.34;71.08
58967;BME280;44744;51.894;5.080;2022-09-09T03:31:34;100753.98;;;15.33;71.14
58967;BME280;44744;51.894;5.080;2022-09-09T03:32:35;100755.08;;;15.33;71.15
58967;BME280;44744;51.894;5.080;2022-09-09T03:33:36;100750.00;;;15.32;71.10
58967;BME280;44744;51.894;5.080;2022-09-09T03:34:36;100746.70;;;15.31;71.08
58967;BME280;44744;51.894;5.080;2022-09-09T03:35:36;100748.04;;;15.30;71.11
58967;BME280;44744;51.894;5.080;2022-09-09T03:36:37;100747.94;;;15.29;71.10
58967;BME280;44744;51.894;5.080;2022-09-09T03:37:37;100742.14;;;15.28;71.06
58967;BME280;44744;51.894;5.080;2022-09-09T03:38:37;100742.63;;;15.26;71.12
58967;BME280;44744;51.894;5.080;2022-09-09T03:39:38;100743.77;;;15.25;71.06
58967;BME280;44744;51.894;5.080;2022-09-09T03:40:38;100743.35;;;15.24;71.01
58967;BME280;44744;51.894;5.080;2022-09-09T03:41:38;100744.02;;;15.22;71.10
58967;BME280;44744;51.894;5.080;2022-09-09T03:42:40;100740.86;;;15.21;71.18
58967;BME280;44744;51.894;5.080;2022-09-09T03:43:40;100738.59;;;15.21;71.14
58967;BME280;44744;51.894;5.080;2022-09-09T03:44:40;100738.56;;;15.18;71.16
58967;BME280;44744;51.894;5.080;2022-09-09T03:45:45;100739.55;;;15.17;71.12
58967;BME280;44744;51.894;5.080;2022-09-09T03:46:47;100741.84;;;15.15;71.18
58967;BME280;44744;51.894;5.080;2022-09-09T03:47:47;100737.09;;;15.15;71.14
58967;BME280;44744;51.894;5.080;2022-09-09T03:48:47;100744.36;;;15.15;71.20
58967;BME280;44744;51.894;5.080;2022-09-09T03:49:48;100743.52;;;15.14;71.40
58967;BME280;44744;51.894;5.080;2022-09-09T03:50:50;100738.09;;;15.13;71.27
58967;BME280;44744;51.894;5.080;2022-09-09T03:51:50;100735.63;;;15.12;71.19
58967;BME280;44744;51.894;5.080;2022-09-09T03:52:51;100736.45;;;15.11;71.29
58967;BME280;44744;51.894;5.080;2022-09-09T03:53:51;100735.63;;;15.10;71.33
58967;BME280;44744;51.894;5.080;2022-09-09T03:54:52;100739.52;;;15.10;71.31
58967;BME280;44744;51.894;5.080;2022-09-09T03:55:54;100740.23;;;15.11;71.30
58967;BME280;44744;51.894;5.080;2022-09-09T03:56:55;100741.57;;;15.09;71.53
58967;BME280;44744;51.894;5.080;2022-09-09T03:57:55;100737.36;;;15.08;71.40
58967;BME280;44744;51.894;5.080;2022-09-09T03:58:57;100743.52;;;15.07;71.34
58967;BME280;44744;51.894;5.080;2022-09-09T03:59:57;100739.21;;;15.08;71.41
58967;BME280;44744;51.894;5.080;2022-09-09T04:01:09;100741.91;;;15.07;71.45
58967;BME280;44744;51.894;5.080;2022-09-09T04:02:10;100740.89;;;15.06;71.65
58967;BME280;44744;51.894;5.080;2022-09-09T04:03:13;100741.73;;;15.05;71.54
58967;BME280;44744;51.894;5.080;2022-09-09T04:04:13;100744.52;;;15.06;71.64
58967;BME280;44744;51.894;5.080;2022-09-09T04:05:13;100738.10;;;15.06;71.59
58967;BME280;44744;51.894;5.080;2022-09-09T04:06:16;100735.95;;;15.06;71.63
58967;BME280;44744;51.894;5.080;2022-09-09T04:07:16;100742.73;;;15.06;71.65
58967;BME280;44744;51.894;5.080;2022-09-09T04:08:18;100734.45;;;15.04;71.67
58967;BME280;44744;51.894;5.080;2022-09-09T04:09:18;100736.19;;;15.05;71.57
58967;BME280;44744;51.894;5.080;2022-09-09T04:10:18;100733.24;;;15.04;71.73
58967;BME280;44744;51.894;5.080;2022-09-09T04:11:21;100738.38;;;15.05;71.63
58967;BME280;44744;51.894;5.080;2022-09-09T04:12:24;100734.80;;;15.05;71.62
58967;BME280;44744;51.894;5.080;2022-09-09T04:13:25;100736.77;;;15.05;71.57
58967;BME280;44744;51.894;5.080;2022-09-09T04:14:27;100736.48;;;15.04;71.64
58967;BME280;44744;51.894;5.080;2022-09-09T04:15:27;100736.36;;;15.03;71.63
58967;BME280;44744;51.894;5.080;2022-09-09T04:16:30;100730.48;;;15.03;71.63
58967;BME280;44744;51.894;5.080;2022-09-09T04:17:31;100729.41;;;15.03;71.65
58967;BME280;44744;51.894;5.080;2022-09-09T04:18:34;100730.52;;;15.02;71.69
58967;BME280;44744;51.894;5.080;2022-09-09T04:19:38;100729.11;;;15.02;71.64
58967;BME280;44744;51.894;5.080;2022-09-09T04:20:38;100726.54;;;15.01;71.67
58967;BME280;44744;51.894;5.080;2022-09-09T04:21:40;100724.33;;;14.99;71.72
58967;BME280;44744;51.894;5.080;2022-09-09T04:22:40;100721.36;;;14.98;71.67
58967;BME280;44744;51.894;5.080;2022-09-09T04:23:41;100721.16;;;14.99;71.74
58967;BME280;44744;51.894;5.080;2022-09-09T04:24:41;100715.33;;;14.98;71.73
58967;BME280;44744;51.894;5.080;2022-09-09T04:25:52;100716.40;;;14.98;71.74
58967;BME280;44744;51.894;5.080;2022-09-09T04:26:52;100711.08;;;14.96;71.77
58967;BME280;44744;51.894;5.080;2022-09-09T04:27:54;100710.39;;;14.93;71.75
58967;BME280;44744;51.894;5.080;2022-09-09T04:28:54;100712.71;;;14.93;71.83
58967;BME280;44744;51.894;5.080;2022-09-09T04:29:55;100715.77;;;14.90;71.86
58967;BME280;44744;51.894;5.080;2022-09-09T04:30:55;100715.16;;;14.89;71.90
58967;BME280;44744;51.894;5.080;2022-09-09T04:31:57;100714.87;;;14.90;71.92
58967;BME280;44744;51.894;5.080;2022-09-09T04:32:57;100716.86;;;14.90;71.86
58967;BME280;44744;51.894;5.080;2022-09-09T04:33:57;100716.53;;;14.89;71.92
58967;BME280;44744;51.894;5.080;2022-09-09T04:34:58;100716.27;;;14.88;71.93
58967;BME280;44744;51.894;5.080;2022-09-09T04:35:58;100716.17;;;14.87;72.20
58967;BME280;44744;51.894;5.080;2022-09-09T04:36:59;100718.54;;;14.86;72.23
58967;BME280;44744;51.894;5.080;2022-09-09T04:37:59;100718.59;;;14.85;72.29
58967;BME280;44744;51.894;5.080;2022-09-09T04:39:00;100720.70;;;14.84;72.50
58967;BME280;44744;51.894;5.080;2022-09-09T04:40:01;100715.64;;;14.82;72.40
58967;BME280;44744;51.894;5.080;2022-09-09T04:41:04;100716.77;;;14.81;72.55
58967;BME280;44744;51.894;5.080;2022-09-09T04:42:05;100719.41;;;14.79;72.54
58967;BME280;44744;51.894;5.080;2022-09-09T04:43:05;100719.74;;;14.80;72.53
58967;BME280;44744;51.894;5.080;2022-09-09T04:44:06;100721.09;;;14.78;72.55
58967;BME280;44744;51.894;5.080;2022-09-09T04:45:06;100714.44;;;14.77;72.70
58967;BME280;44744;51.894;5.080;2022-09-09T04:46:07;100716.07;;;14.76;72.65
58967;BME280;44744;51.894;5.080;2022-09-09T04:49:18;100714.18;;;14.73;72.92
58967;BME280;44744;51.894;5.080;2022-09-09T04:50:19;100715.21;;;14.71;73.01
58967;BME280;44744;51.894;5.080;2022-09-09T04:51:19;100712.79;;;14.71;73.01
58967;BME280;44744;51.894;5.080;2022-09-09T04:52:20;100710.27;;;14.71;73.17
58967;BME280;44744;51.894;5.080;2022-09-09T04:53:21;100711.55;;;14.70;73.16
58967;BME280;44744;51.894;5.080;2022-09-09T04:54:21;100705.53;;;14.70;73.21
58967;BME280;44744;51.894;5.080;2022-09-09T04:55:21;100707.34;;;14.69;73.21
58967;BME280;44744;51.894;5.080;2022-09-09T04:56:21;100707.09;;;14.71;73.27
58967;BME280;44744;51.894;5.080;2022-09-09T04:57:22;100709.56;;;14.71;73.36
58967;BME280;44744;51.894;5.080;2022-09-09T04:58:22;100704.05;;;14.71;73.48
58967;BME280;44744;51.894;5.080;2022-09-09T04:59:22;100701.14;;;14.69;73.50
58967;BME280;44744;51.894;5.080;2022-09-09T05:00:24;100704.10;;;14.70;73.47
58967;BME280;44744;51.894;5.080;2022-09-09T05:01:24;100699.48;;;14.70;73.71
58967;BME280;44744;51.894;5.080;2022-09-09T05:02:24;100703.05;;;14.70;73.47
58967;BME280;44744;51.894;5.080;2022-09-09T05:03:25;100700.84;;;14.71;73.53
58967;BME280;44744;51.894;5.080;2022-09-09T05:04:25;100701.72;;;14.71;73.52
58967;BME280;44744;51.894;5.080;2022-09-09T05:05:25;100702.02;;;14.72;73.42
58967;BME280;44744;51.894;5.080;2022-09-09T05:06:25;100701.25;;;14.73;73.52
58967;BME280;44744;51.894;5.080;2022-09-09T05:07:27;100698.84;;;14.71;73.61
58967;BME280;44744;51.894;5.080;2022-09-09T05:08:31;100696.15;;;14.72;73.62
58967;BME280;44744;51.894;5.080;2022-09-09T05:09:34;100695.46;;;14.71;73.65
58967;BME280;44744;51.894;5.080;2022-09-09T05:10:37;100696.67;;;14.72;73.66
58967;BME280;44744;51.894;5.080;2022-09-09T05:11:37;100701.86;;;14.71;73.81
58967;BME280;44744;51.894;5.080;2022-09-09T05:12:38;100701.02;;;14.71;73.83
58967;BME280;44744;51.894;5.080;2022-09-09T05:13:39;100707.05;;;14.71;73.80
58967;BME280;44744;51.894;5.080;2022-09-09T05:14:39;100705.67;;;14.70;73.76
58967;BME280;44744;51.894;5.080;2022-09-09T05:15:39;100703.73;;;14.70;73.86
58967;BME280;44744;51.894;5.080;2022-09-09T05:16:39;100702.29;;;14.71;73.81
58967;BME280;44744;51.894;5.080;2022-09-09T05:17:40;100700.69;;;14.70;73.97
58967;BME280;44744;51.894;5.080;2022-09-09T05:18:41;100696.82;;;14.70;74.05
58967;BME280;44744;51.894;5.080;2022-09-09T05:19:41;100695.55;;;14.70;73.94
58967;BME280;44744;51.894;5.080;2022-09-09T05:20:42;100693.11;;;14.69;73.98
58967;BME280;44744;51.894;5.080;2022-09-09T05:21:42;100691.55;;;14.68;73.91
58967;BME280;44744;51.894;5.080;2022-09-09T05:22:42;100689.16;;;14.70;74.00
58967;BME280;44744;51.894;5.080;2022-09-09T05:23:42;100686.09;;;14.70;74.00
58967;BME280;44744;51.894;5.080;2022-09-09T05:24:43;100685.81;;;14.72;73.96
58967;BME280;44744;51.894;5.080;2022-09-09T05:25:43;100691.39;;;14.73;74.01
58967;BME280;44744;51.894;5.080;2022-09-09T05:26:43;100692.24;;;14.74;73.93
58967;BME280;44744;51.894;5.080;2022-09-09T05:27:44;100695.58;;;14.74;74.01
58967;BME280;44744;51.894;5.080;2022-09-09T05:28:44;100697.16;;;14.75;73.95
58967;BME280;44744;51.894;5.080;2022-09-09T05:29:46;100696.80;;;14.75;73.98
58967;BME280;44744;51.894;5.080;2022-09-09T05:30:46;100699.30;;;14.75;74.11
58967;BME280;44744;51.894;5.080;2022-09-09T05:31:46;100699.50;;;14.74;74.13
58967;BME280;44744;51.894;5.080;2022-09-09T05:32:47;100701.84;;;14.74;74.14
58967;BME280;44744;51.894;5.080;2022-09-09T05:33:48;100701.64;;;14.74;74.15
58967;BME280;44744;51.894;5.080;2022-09-09T05:34:48;100701.59;;;14.75;74.40
58967;BME280;44744;51.894;5.080;2022-09-09T05:35:55;100698.02;;;14.73;74.32
58967;BME280;44744;51.894;5.080;2022-09-09T05:36:55;100701.77;;;14.72;74.32
58967;BME280;44744;51.894;5.080;2022-09-09T05:37:59;100700.61;;;14.72;74.49
58967;BME280;44744;51.894;5.080;2022-09-09T05:38:59;100706.38;;;14.71;74.48
58967;BME280;44744;51.894;5.080;2022-09-09T05:40:00;100703.62;;;14.69;74.53
58967;BME280;44744;51.894;5.080;2022-09-09T05:41:02;100702.34;;;14.70;74.47
58967;BME280;44744;51.894;5.080;2022-09-09T05:42:02;100700.27;;;14.69;74.41
58967;BME280;44744;51.894;5.080;2022-09-09T05:43:03;100700.94;;;14.67;74.57
58967;BME280;44744;51.894;5.080;2022-09-09T05:44:03;100702.47;;;14.68;74.43
58967;BME280;44744;51.894;5.080;2022-09-09T05:45:04;100698.70;;;14.68;74.82
58967;BME280;44744;51.894;5.080;2022-09-09T05:46:10;100701.89;;;14.68;74.82
58967;BME280;44744;51.894;5.080;2022-09-09T05:47:10;100702.86;;;14.67;74.79
58967;BME280;44744;51.894;5.080;2022-09-09T05:48:14;100699.16;;;14.67;74.72
58967;BME280;44744;51.894;5.080;2022-09-09T05:49:14;100699.78;;;14.68;74.80
58967;BME280;44744;51.894;5.080;2022-09-09T05:50:15;100702.91;;;14.69;74.99
58967;BME280;44744;51.894;5.080;2022-09-09T05:51:26;100704.45;;;14.70;74.94
58967;BME280;44744;51.894;5.080;2022-09-09T05:52:26;100704.36;;;14.69;74.96
58967;BME280;44744;51.894;5.080;2022-09-09T05:53:27;100708.02;;;14.70;74.93
58967;BME280;44744;51.894;5.080;2022-09-09T05:54:28;100707.29;;;14.70;75.07
58967;BME280;44744;51.894;5.080;2022-09-09T05:55:28;100707.83;;;14.70;75.08
58967;BME280;44744;51.894;5.080;2022-09-09T05:56:29;100708.85;;;14.71;75.16
58967;BME280;44744;51.894;5.080;2022-09-09T05:57:30;100710.14;;;14.70;75.16
58967;BME280;44744;51.894;5.080;2022-09-09T05:58:33;100708.84;;;14.71;75.22
58967;BME280;44744;51.894;5.080;2022-09-09T05:59:33;100708.91;;;14.72;75.18
58967;BME280;44744;51.894;5.080;2022-09-09T06:00:36;100708.39;;;14.72;75.33
58967;BME280;44744;51.894;5.080;2022-09-09T06:01:37;100711.92;;;14.72;75.28
58967;BME280;44744;51.894;5.080;2022-09-09T06:02:37;100711.75;;;14.72;75.20
58967;BME280;44744;51.894;5.080;2022-09-09T06:03:42;100709.81;;;14.72;75.24
58967;BME280;44744;51.894;5.080;2022-09-09T06:04:42;100709.30;;;14.74;75.26
58967;BME280;44744;51.894;5.080;2022-09-09T06:05:43;100708.42;;;14.74;75.27
58967;BME280;44744;51.894;5.080;2022-09-09T06:06:46;100708.79;;;14.76;75.21
58967;BME280;44744;51.894;5.080;2022-09-09T06:07:46;100709.89;;;14.78;75.20
58967;BME280;44744;51.894;5.080;2022-09-09T06:08:47;100711.37;;;14.80;75.22
58967;BME280;44744;51.894;5.080;2022-09-09T06:09:48;100710.02;;;14.81;75.15
58967;BME280;44744;51.894;5.080;2022-09-09T06:10:48;100706.70;;;14.83;75.12